Portada
METAR-TAF:

METAR-TAF

Aeropuertos :

Gibraltar, Gibraltar

Aeropuerto de Gibraltar

latitud: 36-09N, longitud: 005-21W, altitud: 5 m

Observación

El informe se hizo hace 50 minutos, a las 15:50 UTC
Viento 7 kt del este-sureste
Temperatura 23°C
Humedad 65%
Presión 1016 hPa
Visibilidad 10 km o más
sin nubes por debajo de 1500 m y sin presencia de cumulonimbus.

METAR: LXGB 281550Z 12007KT CAVOK 23/16 Q1016 NOSIG

Hora: 18:40 (16:40 UTC)

Pronóstico

El informe se hizo hace 3 horas y 33 minutos, a las 13:07 UTC
Pronóstico válido del 28 a las 15 UTC al 28 a las 22 UTC
Viento 5 kt del suroeste
Visibilidad 10 km o más
Escasas nubes a una altura de 3000 ft
Probabilidad 40% :
Temporalmente
del 28 a las 15 UTC al 28 a las 22 UTC
Visibilidad: 7000 m
calima

TAF: LXGB 281307Z 2815/2822 22005KT 9999 FEW030 PROB40 TEMPO 2815/2822 7000 HZ

Observaciones y pronósticos meteorológicos de más de 4000 aeropuertos (mensajes METAR y TAF).

Los puntos amarillos y rojos representan las estaciones disponibles.

Ponga el ratón en el punto deseado para ver el nombre de la estación.

Haga clic para ver las observaciones y los pronósticos meteorológicos.

Para cambiar el mapa : haga clic en los botones verdes con una cruz de color negro para hacer un zoom, en el botón verde con un guión para alejar o en las flechas verdes para mapas adyacentes.


METAR-TAF: